sensor_id;sensor_type;location;lat;lon;timestamp;temperature;humidity
34492;DHT22;20737;49.908;8.126;2023-04-26T00:00:20;2.80;99.90
34492;DHT22;20737;49.908;8.126;2023-04-26T00:02:47;2.80;99.90
34492;DHT22;20737;49.908;8.126;2023-04-26T00:05:17;2.80;99.90
34492;DHT22;20737;49.908;8.126;2023-04-26T00:07:49;2.80;99.90
34492;DHT22;20737;49.908;8.126;2023-04-26T00:10:17;2.80;99.90
34492;DHT22;20737;49.908;8.126;2023-04-26T00:12:44;2.80;99.90
34492;DHT22;20737;49.908;8.126;2023-04-26T00:15:10;2.70;99.90
34492;DHT22;20737;49.908;8.126;2023-04-26T00:17:37;2.70;99.90
34492;DHT22;20737;49.908;8.126;2023-04-26T00:20:08;2.70;99.90
34492;DHT22;20737;49.908;8.126;2023-04-26T00:22:36;2.70;99.90
34492;DHT22;20737;49.908;8.126;2023-04-26T00:25:03;2.60;99.90
34492;DHT22;20737;49.908;8.126;2023-04-26T00:27:31;2.60;99.90
34492;DHT22;20737;49.908;8.126;2023-04-26T00:29:58;2.60;99.90
34492;DHT22;20737;49.908;8.126;2023-04-26T00:32:24;2.60;99.90
34492;DHT22;20737;49.908;8.126;2023-04-26T00:34:53;2.60;99.90
34492;DHT22;20737;49.908;8.126;2023-04-26T00:37:20;2.50;99.90
34492;DHT22;20737;49.908;8.126;2023-04-26T00:39:47;2.50;99.90
34492;DHT22;20737;49.908;8.126;2023-04-26T00:42:14;2.50;99.90
34492;DHT22;20737;49.908;8.126;2023-04-26T00:44:46;2.40;99.90
34492;DHT22;20737;49.908;8.126;2023-04-26T00:47:14;2.40;99.90
34492;DHT22;20737;49.908;8.126;2023-04-26T00:49:41;2.50;99.90
34492;DHT22;20737;49.908;8.126;2023-04-26T00:52:08;2.40;99.90
34492;DHT22;20737;49.908;8.126;2023-04-26T00:54:36;2.40;99.90
34492;DHT22;20737;49.908;8.126;2023-04-26T00:57:02;2.40;99.90
34492;DHT22;20737;49.908;8.126;2023-04-26T00:59:31;2.40;99.90
34492;DHT22;20737;49.908;8.126;2023-04-26T01:02:01;2.30;99.90
34492;DHT22;20737;49.908;8.126;2023-04-26T01:04:28;2.30;99.90
34492;DHT22;20737;49.908;8.126;2023-04-26T01:06:55;2.30;99.90
34492;DHT22;20737;49.908;8.126;2023-04-26T01:09:22;2.30;99.90
34492;DHT22;20737;49.908;8.126;2023-04-26T01:11:49;2.30;99.90
34492;DHT22;20737;49.908;8.126;2023-04-26T01:14:17;2.30;99.90
34492;DHT22;20737;49.908;8.126;2023-04-26T01:16:44;2.20;99.90
34492;DHT22;20737;49.908;8.126;2023-04-26T01:19:15;2.20;99.90
34492;DHT22;20737;49.908;8.126;2023-04-26T01:21:43;2.20;99.90
34492;DHT22;20737;49.908;8.126;2023-04-26T01:24:12;2.10;99.90
34492;DHT22;20737;49.908;8.126;2023-04-26T01:26:39;2.10;99.90
34492;DHT22;20737;49.908;8.126;2023-04-26T01:29:13;2.00;99.90
34492;DHT22;20737;49.908;8.126;2023-04-26T01:31:40;2.00;99.90
34492;DHT22;20737;49.908;8.126;2023-04-26T01:34:07;1.90;99.90
34492;DHT22;20737;49.908;8.126;2023-04-26T01:36:34;1.90;99.90
34492;DHT22;20737;49.908;8.126;2023-04-26T01:39:00;1.90;99.90
34492;DHT22;20737;49.908;8.126;2023-04-26T01:41:28;1.80;99.90
34492;DHT22;20737;49.908;8.126;2023-04-26T01:43:56;1.80;99.90
34492;DHT22;20737;49.908;8.126;2023-04-26T01:46:22;1.80;99.90
34492;DHT22;20737;49.908;8.126;2023-04-26T01:48:49;1.80;99.90
34492;DHT22;20737;49.908;8.126;2023-04-26T01:51:16;1.80;99.90
34492;DHT22;20737;49.908;8.126;2023-04-26T01:53:42;1.90;99.90
34492;DHT22;20737;49.908;8.126;2023-04-26T01:56:09;2.00;99.90
34492;DHT22;20737;49.908;8.126;2023-04-26T01:58:37;2.00;99.90
34492;DHT22;20737;49.908;8.126;2023-04-26T02:01:05;1.90;99.90
34492;DHT22;20737;49.908;8.126;2023-04-26T02:03:32;1.90;99.90
34492;DHT22;20737;49.908;8.126;2023-04-26T02:05:59;1.90;99.90
34492;DHT22;20737;49.908;8.126;2023-04-26T02:08:25;1.90;99.90
34492;DHT22;20737;49.908;8.126;2023-04-26T02:10:54;1.90;99.90
34492;DHT22;20737;49.908;8.126;2023-04-26T02:13:21;1.80;99.90
34492;DHT22;20737;49.908;8.126;2023-04-26T02:15:49;1.80;99.90
34492;DHT22;20737;49.908;8.126;2023-04-26T02:18:16;1.80;99.90
34492;DHT22;20737;49.908;8.126;2023-04-26T02:20:46;1.80;99.90
34492;DHT22;20737;49.908;8.126;2023-04-26T02:23:13;1.80;99.90
34492;DHT22;20737;49.908;8.126;2023-04-26T02:25:44;1.70;99.90
34492;DHT22;20737;49.908;8.126;2023-04-26T02:28:11;1.60;99.90
34492;DHT22;20737;49.908;8.126;2023-04-26T02:30:40;1.60;99.90
34492;DHT22;20737;49.908;8.126;2023-04-26T02:33:11;1.50;99.90
34492;DHT22;20737;49.908;8.126;2023-04-26T02:35:38;1.50;99.90
34492;DHT22;20737;49.908;8.126;2023-04-26T02:38:06;1.40;99.90
34492;DHT22;20737;49.908;8.126;2023-04-26T02:40:35;1.40;99.90
34492;DHT22;20737;49.908;8.126;2023-04-26T02:43:02;1.40;99.90
34492;DHT22;20737;49.908;8.126;2023-04-26T02:45:29;1.40;99.90
34492;DHT22;20737;49.908;8.126;2023-04-26T02:47:55;1.40;99.90
34492;DHT22;20737;49.908;8.126;2023-04-26T02:50:23;1.50;99.90
34492;DHT22;20737;49.908;8.126;2023-04-26T02:52:50;1.50;99.90
34492;DHT22;20737;49.908;8.126;2023-04-26T02:55:17;1.50;99.90
34492;DHT22;20737;49.908;8.126;2023-04-26T02:57:44;1.40;99.90
34492;DHT22;20737;49.908;8.126;2023-04-26T03:00:11;1.40;99.90
34492;DHT22;20737;49.908;8.126;2023-04-26T03:02:42;1.40;99.90
34492;DHT22;20737;49.908;8.126;2023-04-26T03:05:09;1.30;99.90
34492;DHT22;20737;49.908;8.126;2023-04-26T03:07:37;1.30;99.90
34492;DHT22;20737;49.908;8.126;2023-04-26T03:10:09;1.30;99.90
34492;DHT22;20737;49.908;8.126;2023-04-26T03:12:36;1.30;99.90
34492;DHT22;20737;49.908;8.126;2023-04-26T03:15:03;1.20;99.90
34492;DHT22;20737;49.908;8.126;2023-04-26T03:17:30;1.20;99.90
34492;DHT22;20737;49.908;8.126;2023-04-26T03:19:57;1.10;99.90
34492;DHT22;20737;49.908;8.126;2023-04-26T03:22:23;1.10;99.90
34492;DHT22;20737;49.908;8.126;2023-04-26T03:24:52;1.10;99.90
34492;DHT22;20737;49.908;8.126;2023-04-26T03:27:18;1.10;99.90
34492;DHT22;20737;49.908;8.126;2023-04-26T03:29:45;1.00;99.90
34492;DHT22;20737;49.908;8.126;2023-04-26T03:32:12;1.00;99.90
34492;DHT22;20737;49.908;8.126;2023-04-26T03:34:38;1.00;99.90
34492;DHT22;20737;49.908;8.126;2023-04-26T03:37:05;1.00;99.90
34492;DHT22;20737;49.908;8.126;2023-04-26T03:39:32;1.00;99.90
34492;DHT22;20737;49.908;8.126;2023-04-26T03:42:00;1.00;99.90
34492;DHT22;20737;49.908;8.126;2023-04-26T03:44:28;1.00;99.90
34492;DHT22;20737;49.908;8.126;2023-04-26T03:46:55;0.90;99.90
34492;DHT22;20737;49.908;8.126;2023-04-26T03:49:21;0.90;99.90
34492;DHT22;20737;49.908;8.126;2023-04-26T03:51:48;0.90;99.90
34492;DHT22;20737;49.908;8.126;2023-04-26T03:54:15;0.80;99.90
34492;DHT22;20737;49.908;8.126;2023-04-26T03:56:41;0.70;99.90
34492;DHT22;20737;49.908;8.126;2023-04-26T03:59:09;0.70;99.90
34492;DHT22;20737;49.908;8.126;2023-04-26T04:01:37;0.70;99.90
34492;DHT22;20737;49.908;8.126;2023-04-26T04:04:04;0.80;99.90
34492;DHT22;20737;49.908;8.126;2023-04-26T04:06:31;0.70;99.90
34492;DHT22;20737;49.908;8.126;2023-04-26T04:09:00;0.80;99.90
34492;DHT22;20737;49.908;8.126;2023-04-26T04:11:26;0.80;99.90
34492;DHT22;20737;49.908;8.126;2023-04-26T04:13:54;0.80;99.90
34492;DHT22;20737;49.908;8.126;2023-04-26T04:16:22;0.80;99.90
34492;DHT22;20737;49.908;8.126;2023-04-26T04:18:49;0.80;99.90
34492;DHT22;20737;49.908;8.126;2023-04-26T04:21:16;0.80;99.90
34492;DHT22;20737;49.908;8.126;2023-04-26T04:23:42;0.80;99.90
34492;DHT22;20737;49.908;8.126;2023-04-26T04:26:09;0.80;99.90
34492;DHT22;20737;49.908;8.126;2023-04-26T04:28:38;0.70;99.90
34492;DHT22;20737;49.908;8.126;2023-04-26T04:31:05;0.70;99.90
34492;DHT22;20737;49.908;8.126;2023-04-26T04:33:35;0.80;99.90
34492;DHT22;20737;49.908;8.126;2023-04-26T04:36:02;0.90;99.90
34492;DHT22;20737;49.908;8.126;2023-04-26T04:38:29;0.80;99.90
34492;DHT22;20737;49.908;8.126;2023-04-26T04:40:56;0.90;99.90
34492;DHT22;20737;49.908;8.126;2023-04-26T04:43:23;0.90;99.90
34492;DHT22;20737;49.908;8.126;2023-04-26T04:45:50;1.00;99.90
34492;DHT22;20737;49.908;8.126;2023-04-26T04:48:17;1.00;99.90
34492;DHT22;20737;49.908;8.126;2023-04-26T04:50:48;1.00;99.90
34492;DHT22;20737;49.908;8.126;2023-04-26T04:53:15;1.20;99.90
34492;DHT22;20737;49.908;8.126;2023-04-26T04:55:42;1.30;99.90
34492;DHT22;20737;49.908;8.126;2023-04-26T04:58:08;1.30;99.90
34492;DHT22;20737;49.908;8.126;2023-04-26T05:00:35;1.30;99.90
34492;DHT22;20737;49.908;8.126;2023-04-26T05:03:03;1.40;99.90
34492;DHT22;20737;49.908;8.126;2023-04-26T05:05:34;1.60;99.90
34492;DHT22;20737;49.908;8.126;2023-04-26T05:08:04;1.70;99.90
34492;DHT22;20737;49.908;8.126;2023-04-26T05:10:32;1.70;99.90
34492;DHT22;20737;49.908;8.126;2023-04-26T05:12:59;1.80;99.90
34492;DHT22;20737;49.908;8.126;2023-04-26T05:15:26;2.00;99.90
34492;DHT22;20737;49.908;8.126;2023-04-26T05:17:53;2.10;99.90
34492;DHT22;20737;49.908;8.126;2023-04-26T05:20:20;2.20;99.90
34492;DHT22;20737;49.908;8.126;2023-04-26T05:22:50;2.30;99.90
34492;DHT22;20737;49.908;8.126;2023-04-26T05:25:21;2.40;99.90
34492;DHT22;20737;49.908;8.126;2023-04-26T05:27:50;2.60;99.90
34492;DHT22;20737;49.908;8.126;2023-04-26T05:30:17;2.80;99.90
34492;DHT22;20737;49.908;8.126;2023-04-26T05:32:43;2.90;99.90
34492;DHT22;20737;49.908;8.126;2023-04-26T05:35:10;3.10;99.90
34492;DHT22;20737;49.908;8.126;2023-04-26T05:37:37;3.20;99.90
34492;DHT22;20737;49.908;8.126;2023-04-26T05:40:05;3.40;99.90
34492;DHT22;20737;49.908;8.126;2023-04-26T05:42:34;3.50;99.90
34492;DHT22;20737;49.908;8.126;2023-04-26T05:45:01;3.60;99.90
34492;DHT22;20737;49.908;8.126;2023-04-26T05:47:28;3.70;99.90
34492;DHT22;20737;49.908;8.126;2023-04-26T05:49:54;4.00;99.90
34492;DHT22;20737;49.908;8.126;2023-04-26T05:52:21;4.20;99.90
34492;DHT22;20737;49.908;8.126;2023-04-26T05:54:48;4.20;99.90
34492;DHT22;20737;49.908;8.126;2023-04-26T05:57:15;4.30;99.90
34492;DHT22;20737;49.908;8.126;2023-04-26T05:59:43;4.40;99.90
34492;DHT22;20737;49.908;8.126;2023-04-26T06:02:10;4.50;99.90
34492;DHT22;20737;49.908;8.126;2023-04-26T06:04:37;4.80;99.90
34492;DHT22;20737;49.908;8.126;2023-04-26T06:07:04;5.00;99.90
34492;DHT22;20737;49.908;8.126;2023-04-26T06:09:31;5.30;99.90
34492;DHT22;20737;49.908;8.126;2023-04-26T06:11:58;5.50;99.90
34492;DHT22;20737;49.908;8.126;2023-04-26T06:14:25;5.70;99.90
34492;DHT22;20737;49.908;8.126;2023-04-26T06:16:53;6.00;99.90
34492;DHT22;20737;49.908;8.126;2023-04-26T06:19:19;6.20;99.90
34492;DHT22;20737;49.908;8.126;2023-04-26T06:21:46;6.40;99.90
34492;DHT22;20737;49.908;8.126;2023-04-26T06:24:13;6.60;99.90
34492;DHT22;20737;49.908;8.126;2023-04-26T06:26:40;6.80;99.90
34492;DHT22;20737;49.908;8.126;2023-04-26T06:29:07;7.50;99.90
34492;DHT22;20737;49.908;8.126;2023-04-26T06:31:33;8.70;99.90
34492;DHT22;20737;49.908;8.126;2023-04-26T06:34:01;9.70;99.90
34492;DHT22;20737;49.908;8.126;2023-04-26T06:36:28;10.80;99.90
34492;DHT22;20737;49.908;8.126;2023-04-26T06:38:55;11.60;99.90
34492;DHT22;20737;49.908;8.126;2023-04-26T06:41:22;12.20;99.90
34492;DHT22;20737;49.908;8.126;2023-04-26T06:43:49;13.00;99.90
34492;DHT22;20737;49.908;8.126;2023-04-26T06:46:15;13.80;99.90
34492;DHT22;20737;49.908;8.126;2023-04-26T06:48:42;14.40;99.90
34492;DHT22;20737;49.908;8.126;2023-04-26T06:51:10;15.40;97.90
34492;DHT22;20737;49.908;8.126;2023-04-26T06:53:37;15.30;95.90
34492;DHT22;20737;49.908;8.126;2023-04-26T06:56:04;15.10;95.80
34492;DHT22;20737;49.908;8.126;2023-04-26T06:58:31;14.40;97.40
34492;DHT22;20737;49.908;8.126;2023-04-26T07:00:58;14.40;97.00
34492;DHT22;20737;49.908;8.126;2023-04-26T07:03:25;14.30;97.60
34492;DHT22;20737;49.908;8.126;2023-04-26T07:05:54;14.50;97.90
34492;DHT22;20737;49.908;8.126;2023-04-26T07:08:22;14.10;98.10
34492;DHT22;20737;49.908;8.126;2023-04-26T07:10:51;13.90;99.00
34492;DHT22;20737;49.908;8.126;2023-04-26T07:13:19;14.20;99.40
34492;DHT22;20737;49.908;8.126;2023-04-26T07:15:46;15.70;95.60
34492;DHT22;20737;49.908;8.126;2023-04-26T07:18:13;16.60;92.80
34492;DHT22;20737;49.908;8.126;2023-04-26T07:20:39;16.80;90.00
34492;DHT22;20737;49.908;8.126;2023-04-26T07:23:06;17.20;88.10
34492;DHT22;20737;49.908;8.126;2023-04-26T07:25:34;16.60;88.90
34492;DHT22;20737;49.908;8.126;2023-04-26T07:28:01;16.10;88.50
34492;DHT22;20737;49.908;8.126;2023-04-26T07:30:28;16.70;84.30
34492;DHT22;20737;49.908;8.126;2023-04-26T07:32:56;16.50;86.10
34492;DHT22;20737;49.908;8.126;2023-04-26T07:35:23;16.50;87.00
34492;DHT22;20737;49.908;8.126;2023-04-26T07:37:50;16.30;87.50
34492;DHT22;20737;49.908;8.126;2023-04-26T07:40:17;16.80;86.80
34492;DHT22;20737;49.908;8.126;2023-04-26T07:42:48;17.70;82.20
34492;DHT22;20737;49.908;8.126;2023-04-26T07:45:15;19.20;71.50
34492;DHT22;20737;49.908;8.126;2023-04-26T07:47:43;18.70;71.30
34492;DHT22;20737;49.908;8.126;2023-04-26T07:50:10;18.10;73.30
34492;DHT22;20737;49.908;8.126;2023-04-26T07:52:37;17.50;71.20
34492;DHT22;20737;49.908;8.126;2023-04-26T07:55:04;17.40;74.60
34492;DHT22;20737;49.908;8.126;2023-04-26T07:57:31;16.90;75.50
34492;DHT22;20737;49.908;8.126;2023-04-26T07:59:59;17.90;76.00
34492;DHT22;20737;49.908;8.126;2023-04-26T08:02:26;18.80;72.80
34492;DHT22;20737;49.908;8.126;2023-04-26T08:04:53;18.80;69.40
34492;DHT22;20737;49.908;8.126;2023-04-26T08:07:21;19.80;66.90
34492;DHT22;20737;49.908;8.126;2023-04-26T08:09:48;20.10;64.50
34492;DHT22;20737;49.908;8.126;2023-04-26T08:12:15;20.90;59.20
34492;DHT22;20737;49.908;8.126;2023-04-26T08:14:42;20.50;62.30
34492;DHT22;20737;49.908;8.126;2023-04-26T08:17:10;21.40;61.00
34492;DHT22;20737;49.908;8.126;2023-04-26T08:19:37;21.80;57.60
34492;DHT22;20737;49.908;8.126;2023-04-26T08:22:04;21.70;56.10
34492;DHT22;20737;49.908;8.126;2023-04-26T08:24:31;21.60;55.70
34492;DHT22;20737;49.908;8.126;2023-04-26T08:26:58;22.60;53.80
34492;DHT22;20737;49.908;8.126;2023-04-26T08:29:26;22.50;51.40
34492;DHT22;20737;49.908;8.126;2023-04-26T08:31:53;20.90;53.10
34492;DHT22;20737;49.908;8.126;2023-04-26T08:34:21;20.60;54.10
34492;DHT22;20737;49.908;8.126;2023-04-26T08:36:48;19.90;56.10
34492;DHT22;20737;49.908;8.126;2023-04-26T08:39:15;19.10;54.60
34492;DHT22;20737;49.908;8.126;2023-04-26T08:41:52;18.60;58.10
34492;DHT22;20737;49.908;8.126;2023-04-26T08:44:21;18.70;56.10
34492;DHT22;20737;49.908;8.126;2023-04-26T08:46:56;18.10;57.00
34492;DHT22;20737;49.908;8.126;2023-04-26T08:49:34;17.80;58.10
34492;DHT22;20737;49.908;8.126;2023-04-26T08:52:08;17.20;60.00
34492;DHT22;20737;49.908;8.126;2023-04-26T08:54:36;17.60;58.40
34492;DHT22;20737;49.908;8.126;2023-04-26T08:57:03;18.50;55.80
34492;DHT22;20737;49.908;8.126;2023-04-26T08:59:31;18.40;56.50
34492;DHT22;20737;49.908;8.126;2023-04-26T09:01:59;20.00;54.20
34492;DHT22;20737;49.908;8.126;2023-04-26T09:04:28;21.70;50.70
34492;DHT22;20737;49.908;8.126;2023-04-26T09:06:59;21.40;51.50
34492;DHT22;20737;49.908;8.126;2023-04-26T09:09:27;20.70;51.00
34492;DHT22;20737;49.908;8.126;2023-04-26T09:11:54;19.60;53.00
34492;DHT22;20737;49.908;8.126;2023-04-26T09:14:22;18.30;54.50
34492;DHT22;20737;49.908;8.126;2023-04-26T09:16:49;18.30;56.80
34492;DHT22;20737;49.908;8.126;2023-04-26T09:19:19;19.60;55.40
34492;DHT22;20737;49.908;8.126;2023-04-26T09:22:01;21.40;49.70
34492;DHT22;20737;49.908;8.126;2023-04-26T09:24:28;21.40;49.50
34492;DHT22;20737;49.908;8.126;2023-04-26T09:27:00;22.80;46.80
34492;DHT22;20737;49.908;8.126;2023-04-26T09:29:27;21.60;47.20
34492;DHT22;20737;49.908;8.126;2023-04-26T09:31:54;22.10;47.20
34492;DHT22;20737;49.908;8.126;2023-04-26T09:34:22;21.50;47.00
34492;DHT22;20737;49.908;8.126;2023-04-26T09:36:50;21.00;47.50
34492;DHT22;20737;49.908;8.126;2023-04-26T09:39:33;20.10;49.00
34492;DHT22;20737;49.908;8.126;2023-04-26T09:42:00;20.40;50.40
34492;DHT22;20737;49.908;8.126;2023-04-26T09:44:28;19.80;50.50
34492;DHT22;20737;49.908;8.126;2023-04-26T09:47:00;19.20;51.00
34492;DHT22;20737;49.908;8.126;2023-04-26T09:49:27;18.90;53.60
34492;DHT22;20737;49.908;8.126;2023-04-26T09:52:02;18.40;53.40
34492;DHT22;20737;49.908;8.126;2023-04-26T09:54:39;17.90;55.70
34492;DHT22;20737;49.908;8.126;2023-04-26T09:57:06;17.00;56.60
34492;DHT22;20737;49.908;8.126;2023-04-26T09:59:45;16.30;58.00
34492;DHT22;20737;49.908;8.126;2023-04-26T10:02:17;16.20;58.20
34492;DHT22;20737;49.908;8.126;2023-04-26T10:04:47;15.80;60.80
34492;DHT22;20737;49.908;8.126;2023-04-26T10:07:17;15.90;62.80
34492;DHT22;20737;49.908;8.126;2023-04-26T10:09:46;16.20;59.50
34492;DHT22;20737;49.908;8.126;2023-04-26T10:12:15;16.50;60.30
34492;DHT22;20737;49.908;8.126;2023-04-26T10:14:43;17.00;57.20
34492;DHT22;20737;49.908;8.126;2023-04-26T10:17:11;16.50;57.70
34492;DHT22;20737;49.908;8.126;2023-04-26T10:19:40;16.60;59.50
34492;DHT22;20737;49.908;8.126;2023-04-26T10:22:13;16.70;57.70
34492;DHT22;20737;49.908;8.126;2023-04-26T10:24:42;17.10;57.30
34492;DHT22;20737;49.908;8.126;2023-04-26T10:27:11;16.90;59.00
34492;DHT22;20737;49.908;8.126;2023-04-26T10:30:06;17.40;57.10
34492;DHT22;20737;49.908;8.126;2023-04-26T10:36:10;18.20;53.80
34492;DHT22;20737;49.908;8.126;2023-04-26T10:38:39;19.40;52.00
34492;DHT22;20737;49.908;8.126;2023-04-26T10:41:27;20.50;50.40
34492;DHT22;20737;49.908;8.126;2023-04-26T10:43:57;21.70;48.70
34492;DHT22;20737;49.908;8.126;2023-04-26T10:46:36;20.30;49.30
34492;DHT22;20737;49.908;8.126;2023-04-26T10:49:16;19.50;50.30
34492;DHT22;20737;49.908;8.126;2023-04-26T10:52:08;19.40;52.10
34492;DHT22;20737;49.908;8.126;2023-04-26T10:54:49;19.70;51.20
34492;DHT22;20737;49.908;8.126;2023-04-26T10:57:16;19.30;51.50
34492;DHT22;20737;49.908;8.126;2023-04-26T11:03:05;21.20;49.00
34492;DHT22;20737;49.908;8.126;2023-04-26T11:08:20;21.90;45.60
34492;DHT22;20737;49.908;8.126;2023-04-26T11:10:55;20.90;47.90
34492;DHT22;20737;49.908;8.126;2023-04-26T11:13:22;19.50;50.30
34492;DHT22;20737;49.908;8.126;2023-04-26T11:15:52;17.90;52.00
34492;DHT22;20737;49.908;8.126;2023-04-26T11:18:20;17.70;53.40
34492;DHT22;20737;49.908;8.126;2023-04-26T11:20:47;18.50;53.90
34492;DHT22;20737;49.908;8.126;2023-04-26T11:23:14;19.90;51.40
34492;DHT22;20737;49.908;8.126;2023-04-26T11:25:43;22.00;46.80
34492;DHT22;20737;49.908;8.126;2023-04-26T11:28:10;24.20;44.60
34492;DHT22;20737;49.908;8.126;2023-04-26T11:30:37;24.90;40.60
34492;DHT22;20737;49.908;8.126;2023-04-26T11:33:04;25.30;41.60
34492;DHT22;20737;49.908;8.126;2023-04-26T11:35:34;25.40;40.60
34492;DHT22;20737;49.908;8.126;2023-04-26T11:38:03;24.40;40.60
34492;DHT22;20737;49.908;8.126;2023-04-26T11:40:32;23.90;42.90
34492;DHT22;20737;49.908;8.126;2023-04-26T11:43:02;24.90;40.80
34492;DHT22;20737;49.908;8.126;2023-04-26T11:45:31;25.80;40.30
34492;DHT22;20737;49.908;8.126;2023-04-26T11:47:58;26.50;37.10
34492;DHT22;20737;49.908;8.126;2023-04-26T11:50:26;25.80;37.30
34492;DHT22;20737;49.908;8.126;2023-04-26T11:52:56;26.20;36.80
34492;DHT22;20737;49.908;8.126;2023-04-26T11:55:26;25.60;37.60
34492;DHT22;20737;49.908;8.126;2023-04-26T11:57:53;24.70;39.40
34492;DHT22;20737;49.908;8.126;2023-04-26T12:00:21;24.50;39.00
34492;DHT22;20737;49.908;8.126;2023-04-26T12:02:49;24.40;39.90
34492;DHT22;20737;49.908;8.126;2023-04-26T12:05:21;24.70;40.20
34492;DHT22;20737;49.908;8.126;2023-04-26T12:07:51;23.10;40.60
34492;DHT22;20737;49.908;8.126;2023-04-26T12:10:24;23.30;42.70
34492;DHT22;20737;49.908;8.126;2023-04-26T12:12:51;24.60;40.50
34492;DHT22;20737;49.908;8.126;2023-04-26T12:15:22;25.20;38.20
34492;DHT22;20737;49.908;8.126;2023-04-26T12:17:58;26.00;37.10
34492;DHT22;20737;49.908;8.126;2023-04-26T12:20:29;25.40;38.20
34492;DHT22;20737;49.908;8.126;2023-04-26T12:23:07;25.00;39.00
34492;DHT22;20737;49.908;8.126;2023-04-26T12:25:36;24.70;38.20
34492;DHT22;20737;49.908;8.126;2023-04-26T12:28:09;24.40;38.00
34492;DHT22;20737;49.908;8.126;2023-04-26T12:30:39;23.50;38.10
34492;DHT22;20737;49.908;8.126;2023-04-26T12:33:05;22.40;41.10
34492;DHT22;20737;49.908;8.126;2023-04-26T12:35:33;21.20;43.60
34492;DHT22;20737;49.908;8.126;2023-04-26T12:38:00;21.80;43.20
34492;DHT22;20737;49.908;8.126;2023-04-26T12:40:28;22.10;41.90
34492;DHT22;20737;49.908;8.126;2023-04-26T12:42:57;21.90;42.40
34492;DHT22;20737;49.908;8.126;2023-04-26T12:45:24;21.40;43.20
34492;DHT22;20737;49.908;8.126;2023-04-26T12:47:52;22.00;44.30
34492;DHT22;20737;49.908;8.126;2023-04-26T12:50:19;23.00;41.90
34492;DHT22;20737;49.908;8.126;2023-04-26T12:52:46;22.20;40.90
34492;DHT22;20737;49.908;8.126;2023-04-26T12:55:14;22.30;42.70
34492;DHT22;20737;49.908;8.126;2023-04-26T12:57:42;21.60;41.20
34492;DHT22;20737;49.908;8.126;2023-04-26T13:00:12;21.80;42.20
34492;DHT22;20737;49.908;8.126;2023-04-26T13:02:40;20.80;42.80
34492;DHT22;20737;49.908;8.126;2023-04-26T13:05:07;21.60;43.30
34492;DHT22;20737;49.908;8.126;2023-04-26T13:07:35;21.50;44.50
34492;DHT22;20737;49.908;8.126;2023-04-26T13:10:05;21.50;43.80
34492;DHT22;20737;49.908;8.126;2023-04-26T13:12:33;21.10;43.40
34492;DHT22;20737;49.908;8.126;2023-04-26T13:15:00;20.50;44.00
34492;DHT22;20737;49.908;8.126;2023-04-26T13:17:28;19.80;45.40
34492;DHT22;20737;49.908;8.126;2023-04-26T13:19:56;20.20;46.30
34492;DHT22;20737;49.908;8.126;2023-04-26T13:22:22;20.40;45.50
34492;DHT22;20737;49.908;8.126;2023-04-26T13:24:49;20.10;44.80
34492;DHT22;20737;49.908;8.126;2023-04-26T13:27:16;19.60;45.60
34492;DHT22;20737;49.908;8.126;2023-04-26T13:29:42;19.20;46.00
34492;DHT22;20737;49.908;8.126;2023-04-26T13:32:09;19.30;45.80
34492;DHT22;20737;49.908;8.126;2023-04-26T13:34:37;18.90;46.20
34492;DHT22;20737;49.908;8.126;2023-04-26T13:37:05;18.60;48.30
34492;DHT22;20737;49.908;8.126;2023-04-26T13:39:32;18.20;49.00
34492;DHT22;20737;49.908;8.126;2023-04-26T13:41:58;17.80;49.00
34492;DHT22;20737;49.908;8.126;2023-04-26T13:44:26;17.90;49.40
34492;DHT22;20737;49.908;8.126;2023-04-26T13:46:54;18.00;49.80
34492;DHT22;20737;49.908;8.126;2023-04-26T13:49:20;17.80;48.10
34492;DHT22;20737;49.908;8.126;2023-04-26T13:51:49;17.90;50.80
34492;DHT22;20737;49.908;8.126;2023-04-26T13:54:15;18.10;51.00
34492;DHT22;20737;49.908;8.126;2023-04-26T13:56:42;18.50;49.70
34492;DHT22;20737;49.908;8.126;2023-04-26T13:59:09;18.60;49.30
34492;DHT22;20737;49.908;8.126;2023-04-26T14:01:35;19.00;49.70
34492;DHT22;20737;49.908;8.126;2023-04-26T14:04:03;18.70;46.70
34492;DHT22;20737;49.908;8.126;2023-04-26T14:06:30;18.90;47.10
34492;DHT22;20737;49.908;8.126;2023-04-26T14:09:00;18.80;47.70
34492;DHT22;20737;49.908;8.126;2023-04-26T14:11:27;18.70;47.40
34492;DHT22;20737;49.908;8.126;2023-04-26T14:13:54;18.80;46.20
34492;DHT22;20737;49.908;8.126;2023-04-26T14:16:21;18.60;47.00
34492;DHT22;20737;49.908;8.126;2023-04-26T14:18:49;18.10;49.30
34492;DHT22;20737;49.908;8.126;2023-04-26T14:21:16;18.00;49.80
34492;DHT22;20737;49.908;8.126;2023-04-26T14:23:43;17.70;50.00
34492;DHT22;20737;49.908;8.126;2023-04-26T14:26:11;17.40;51.40
34492;DHT22;20737;49.908;8.126;2023-04-26T14:28:38;17.20;52.40
34492;DHT22;20737;49.908;8.126;2023-04-26T14:31:05;16.90;51.90
34492;DHT22;20737;49.908;8.126;2023-04-26T14:33:32;16.70;53.90
34492;DHT22;20737;49.908;8.126;2023-04-26T14:35:59;17.10;51.80
34492;DHT22;20737;49.908;8.126;2023-04-26T14:38:25;17.40;53.00
34492;DHT22;20737;49.908;8.126;2023-04-26T14:40:52;18.10;50.70
34492;DHT22;20737;49.908;8.126;2023-04-26T14:43:20;18.10;49.50
34492;DHT22;20737;49.908;8.126;2023-04-26T14:45:47;18.30;48.50
34492;DHT22;20737;49.908;8.126;2023-04-26T14:48:13;18.20;49.60
34492;DHT22;20737;49.908;8.126;2023-04-26T14:50:40;18.50;50.70
34492;DHT22;20737;49.908;8.126;2023-04-26T14:53:07;18.20;48.80
34492;DHT22;20737;49.908;8.126;2023-04-26T14:55:34;18.20;49.50
34492;DHT22;20737;49.908;8.126;2023-04-26T14:58:00;18.10;49.80
34492;DHT22;20737;49.908;8.126;2023-04-26T15:00:29;18.00;49.40
34492;DHT22;20737;49.908;8.126;2023-04-26T15:02:56;17.80;50.80
34492;DHT22;20737;49.908;8.126;2023-04-26T15:05:22;17.20;53.40
34492;DHT22;20737;49.908;8.126;2023-04-26T15:07:49;17.00;54.70
34492;DHT22;20737;49.908;8.126;2023-04-26T15:10:16;16.90;53.40
34492;DHT22;20737;49.908;8.126;2023-04-26T15:12:43;17.20;54.70
34492;DHT22;20737;49.908;8.126;2023-04-26T15:15:10;17.10;52.80
34492;DHT22;20737;49.908;8.126;2023-04-26T15:17:38;17.00;53.10
34492;DHT22;20737;49.908;8.126;2023-04-26T15:20:08;16.70;52.30
34492;DHT22;20737;49.908;8.126;2023-04-26T15:22:35;16.50;53.20
34492;DHT22;20737;49.908;8.126;2023-04-26T15:25:03;16.50;53.60
34492;DHT22;20737;49.908;8.126;2023-04-26T15:27:32;16.30;53.80
34492;DHT22;20737;49.908;8.126;2023-04-26T15:29:59;16.50;53.30
34492;DHT22;20737;49.908;8.126;2023-04-26T15:32:27;16.50;55.70
34492;DHT22;20737;49.908;8.126;2023-04-26T15:34:55;16.40;53.10
34492;DHT22;20737;49.908;8.126;2023-04-26T15:37:22;16.50;55.50
34492;DHT22;20737;49.908;8.126;2023-04-26T15:39:49;16.50;53.40
34492;DHT22;20737;49.908;8.126;2023-04-26T15:42:16;16.50;54.30
34492;DHT22;20737;49.908;8.126;2023-04-26T15:44:42;16.50;53.20
34492;DHT22;20737;49.908;8.126;2023-04-26T15:47:09;16.30;54.90
34492;DHT22;20737;49.908;8.126;2023-04-26T15:49:36;16.30;53.20
34492;DHT22;20737;49.908;8.126;2023-04-26T15:52:04;16.10;53.90